Time;durP1;ratioP1;P1;durP2;ratioP2;P2;SDS_P1;SDS_P2;PMS_P1;PMS_P2;Temp;Humidity;BMP_temperature;BMP_pressure;BME280_temperature;BME280_humidity;BME280_pressure;Samples;Min_cycle;Max_cycle;Signal;HPM_P1;HPM_P2
2023/10/17 00:00:25;;;;;;;;;;;8.70;99.90;;;;;;2621874;47;19945;-76
2023/10/17 00:02:56;;;;;;;;;;;8.60;99.90;;;;;;2621608;54;19988;-77
2023/10/17 00:05:27;;;;;;;;;;;8.60;99.90;;;;;;2621823;47;19938;-79
2023/10/17 00:07:58;;;;;;;;;;;8.50;99.90;;;;;;2622015;47;19947;-76
2023/10/17 00:10:32;;;;;;;;;;;8.50;99.90;;;;;;2622687;39;20388;-79
2023/10/17 00:13:18;;;;;;;;;;;8.50;99.90;;;;;;2621952;51;19946;-78
2023/10/17 00:15:48;;;;;;;;;;;8.50;99.90;;;;;;2624332;39;20534;-77
2023/10/17 00:18:19;;;;;;;;;;;8.40;99.90;;;;;;2625399;47;19950;-77
2023/10/17 00:20:51;;;;;;;;;;;8.40;99.90;;;;;;2624064;54;19963;-78
2023/10/17 00:23:24;;;;;;;;;;;8.40;99.90;;;;;;2623116;54;19947;-77
2023/10/17 00:25:56;;;;;;;;;;;8.40;99.90;;;;;;2628872;47;19939;-76
2023/10/17 00:28:27;;;;;;;;;;;8.40;99.90;;;;;;2625519;54;20445;-78
2023/10/17 00:30:56;;;;;;;;;;;9.10;99.90;;;;;;2623011;39;20360;-77
2023/10/17 00:33:26;;;;;;;;;;;8.40;99.90;;;;;;2623051;39;20341;-78
2023/10/17 00:35:57;;;;;;;;;;;8.40;99.90;;;;;;2622239;47;19939;-80
2023/10/17 00:38:29;;;;;;;;;;;8.40;99.90;;;;;;2621911;54;19947;-78
2023/10/17 00:41:03;;;;;;;;;;;9.00;99.90;;;;;;2621932;54;19988;-78
2023/10/17 00:43:35;;;;;;;;;;;8.40;99.90;;;;;;2622347;47;19938;-78
2023/10/17 00:46:07;;;;;;;;;;;8.40;99.90;;;;;;2622481;47;20003;-78
2023/10/17 00:48:38;;;;;;;;;;;8.30;99.90;;;;;;2622472;47;19947;-77
2023/10/17 00:51:10;;;;;;;;;;;8.30;99.90;;;;;;2622393;47;19966;-78
2023/10/17 00:53:42;;;;;;;;;;;8.30;99.90;;;;;;2622906;47;20038;-78
2023/10/17 00:56:15;;;;;;;;;;;8.20;99.90;;;;;;2624493;47;19991;-77
2023/10/17 00:58:45;;;;;;;;;;;8.20;99.90;;;;;;2623307;39;20537;-77
2023/10/17 01:01:20;;;;;;;;;;;8.20;99.90;;;;;;2623131;54;19954;-78
2023/10/17 01:03:54;;;;;;;;;;;8.10;99.90;;;;;;2624389;39;20342;-78
2023/10/17 01:06:36;;;;;;;;;;;8.10;99.90;;;;;;2623366;47;19946;-77
2023/10/17 01:09:19;;;;;;;;;;;8.10;99.90;;;;;;2622566;47;19939;-79
2023/10/17 01:11:52;;;;;;;;;;;8.10;99.90;;;;;;2623574;47;19999;-78
2023/10/17 01:16:52;;;;;;;;;;;8.10;99.90;;;;;;2616487;54;19939;-73
2023/10/17 01:19:22;;;;;;;;;;;8.00;99.90;;;;;;2616776;54;19977;-73
2023/10/17 01:21:51;;;;;;;;;;;8.00;99.90;;;;;;2617033;54;20784;-74
2023/10/17 01:24:25;;;;;;;;;;;8.00;99.90;;;;;;2616710;54;20461;-74
2023/10/17 01:26:56;;;;;;;;;;;8.00;99.90;;;;;;2616658;47;19950;-72
2023/10/17 01:31:56;;;;;;;;;;;8.10;99.90;;;;;;2616441;47;19946;-72
2023/10/17 01:34:27;;;;;;;;;;;8.60;99.90;;;;;;2616557;47;19946;-73
2023/10/17 01:36:57;;;;;;;;;;;8.00;99.90;;;;;;2617429;54;20041;-72
2023/10/17 01:39:30;;;;;;;;;;;8.10;99.90;;;;;;2616496;47;19946;-72
2023/10/17 01:41:59;;;;;;;;;;;8.00;99.90;;;;;;2617424;54;19951;-73
2023/10/17 01:44:29;;;;;;;;;;;8.00;99.90;;;;;;2616886;47;20022;-73
2023/10/17 01:46:59;;;;;;;;;;;8.00;99.90;;;;;;2617431;47;20444;-72
2023/10/17 01:49:29;;;;;;;;;;;7.90;99.90;;;;;;2617151;53;19974;-72
2023/10/17 01:52:01;;;;;;;;;;;7.90;99.90;;;;;;2618525;39;20384;-72
2023/10/17 01:54:36;;;;;;;;;;;7.90;99.90;;;;;;2616165;47;19947;-72
2023/10/17 01:57:08;;;;;;;;;;;7.80;99.90;;;;;;2617859;47;19939;-71
2023/10/17 01:59:38;;;;;;;;;;;7.70;99.90;;;;;;2617823;47;19947;-72
2023/10/17 02:02:08;;;;;;;;;;;7.70;99.90;;;;;;2616880;47;19947;-72
2023/10/17 02:04:38;;;;;;;;;;;7.70;99.90;;;;;;2615968;54;19946;-71
2023/10/17 02:07:08;;;;;;;;;;;7.70;99.90;;;;;;2616488;39;20631;-72
2023/10/17 02:09:54;;;;;;;;;;;7.70;99.90;;;;;;2617199;54;19947;-72
2023/10/17 02:12:24;;;;;;;;;;;7.60;99.90;;;;;;2618172;39;20350;-72
2023/10/17 02:14:54;;;;;;;;;;;7.70;99.90;;;;;;2617103;39;20353;-72
2023/10/17 02:17:24;;;;;;;;;;;7.70;99.90;;;;;;2617149;54;19968;-72
2023/10/17 02:19:58;;;;;;;;;;;7.70;99.90;;;;;;2616993;47;19947;-72
2023/10/17 02:22:30;;;;;;;;;;;7.70;99.90;;;;;;2617877;47;19946;-72
2023/10/17 02:25:05;;;;;;;;;;;7.70;99.90;;;;;;2617167;54;19939;-72
2023/10/17 02:27:38;;;;;;;;;;;7.60;99.90;;;;;;2617828;47;19945;-73
2023/10/17 02:30:11;;;;;;;;;;;7.60;99.90;;;;;;2617673;47;19947;-72
2023/10/17 02:32:44;;;;;;;;;;;7.50;99.90;;;;;;2617284;54;19987;-72
2023/10/17 02:35:15;;;;;;;;;;;7.50;99.90;;;;;;2616658;46;19953;-71
2023/10/17 12:45:36;;;;;;;;;;;7.60;99.90;;;;;;2602770;54;21380;-75
2023/10/17 12:48:07;;;;;;;;;;;15.00;99.90;;;;;;2615515;47;19947;-74
2023/10/17 12:53:12;;;;;;;;;;;14.60;99.90;;;;;;2604292;54;19953;-74
2023/10/17 12:55:42;;;;;;;;;;;14.50;99.90;;;;;;2615206;54;20783;-74
2023/10/17 13:01:00;;;;;;;;;;;14.40;99.90;;;;;;2606958;54;19943;-74
2023/10/17 13:03:33;;;;;;;;;;;14.20;99.90;;;;;;2617211;47;19968;-75
2023/10/17 13:06:04;;;;;;;;;;;14.10;99.90;;;;;;2617536;47;19954;-74
2023/10/17 13:08:35;;;;;;;;;;;14.00;99.90;;;;;;2618381;39;20456;-72
2023/10/17 13:11:06;;;;;;;;;;;14.00;99.90;;;;;;2623566;47;19947;-72
2023/10/17 13:13:36;;;;;;;;;;;13.90;99.90;;;;;;2620914;39;20399;-71
2023/10/17 13:16:10;;;;;;;;;;;13.80;99.90;;;;;;2622165;54;19995;-71
2023/10/17 13:18:41;;;;;;;;;;;13.80;99.90;;;;;;2619917;54;19966;-72
2023/10/17 13:21:15;;;;;;;;;;;13.60;99.90;;;;;;2618255;39;20452;-72
2023/10/17 13:23:45;;;;;;;;;;;13.60;99.90;;;;;;2617184;47;19947;-72
2023/10/17 13:26:15;;;;;;;;;;;13.50;99.90;;;;;;2617487;47;19946;-71
2023/10/17 13:28:45;;;;;;;;;;;13.40;99.90;;;;;;2617114;47;20504;-72
2023/10/17 13:31:18;;;;;;;;;;;13.30;99.90;;;;;;2617655;47;19950;-72
2023/10/17 13:33:49;;;;;;;;;;;13.30;99.90;;;;;;2617161;47;19958;-73
2023/10/17 13:36:20;;;;;;;;;;;13.30;99.90;;;;;;2618131;46;19951;-73
2023/10/17 13:38:50;;;;;;;;;;;13.30;99.90;;;;;;2618115;39;20345;-73
2023/10/17 13:41:21;;;;;;;;;;;13.30;99.90;;;;;;2617330;47;20067;-73
2023/10/17 13:43:51;;;;;;;;;;;13.30;99.90;;;;;;2617830;39;20424;-73
2023/10/17 13:46:23;;;;;;;;;;;13.40;99.90;;;;;;2617917;39;20350;-74
2023/10/17 13:48:53;;;;;;;;;;;13.40;99.90;;;;;;2618036;47;19954;-74
2023/10/17 13:51:22;;;;;;;;;;;13.40;99.90;;;;;;2618473;47;19954;-74
2023/10/17 13:53:52;;;;;;;;;;;13.40;99.90;;;;;;2616797;47;20137;-75
2023/10/17 13:56:22;;;;;;;;;;;13.40;99.90;;;;;;2617940;47;19950;-74
2023/10/17 13:58:52;;;;;;;;;;;13.30;99.90;;;;;;2618482;54;19939;-75
2023/10/17 14:01:31;;;;;;;;;;;13.30;99.90;;;;;;2617911;47;19950;-75
2023/10/17 14:04:03;;;;;;;;;;;13.20;99.90;;;;;;2617158;54;19989;-75
2023/10/17 14:06:34;;;;;;;;;;;13.20;99.90;;;;;;2616857;47;19946;-75
2023/10/17 14:09:14;;;;;;;;;;;13.20;99.90;;;;;;2617507;47;19939;-75
2023/10/17 14:11:46;;;;;;;;;;;13.20;99.90;;;;;;2617046;39;20364;-74
2023/10/17 14:14:16;;;;;;;;;;;13.30;99.90;;;;;;2616959;54;19973;-74
2023/10/17 14:16:50;;;;;;;;;;;13.30;99.90;;;;;;2617028;47;19946;-74
2023/10/17 14:19:28;;;;;;;;;;;13.30;99.90;;;;;;2616969;47;19946;-74
2023/10/17 14:22:04;;;;;;;;;;;13.40;99.90;;;;;;2617844;47;20030;-73
2023/10/17 14:24:49;;;;;;;;;;;13.40;99.90;;;;;;2616386;54;19950;-74
2023/10/17 14:27:20;;;;;;;;;;;13.40;99.90;;;;;;2617470;47;19939;-74
2023/10/17 14:29:48;;;;;;;;;;;13.50;99.90;;;;;;2617438;47;19969;-74
2023/10/17 14:32:21;;;;;;;;;;;13.40;99.90;;;;;;2617686;46;19996;-74
2023/10/17 14:34:51;;;;;;;;;;;13.40;99.90;;;;;;2616363;54;19947;-73
2023/10/17 14:37:23;;;;;;;;;;;13.40;99.90;;;;;;2617913;47;19938;-74
2023/10/17 14:39:54;;;;;;;;;;;13.60;99.90;;;;;;2618763;47;19995;-74
2023/10/17 14:42:27;;;;;;;;;;;13.60;99.90;;;;;;2617859;47;19970;-74
2023/10/17 14:44:57;;;;;;;;;;;13.70;99.90;;;;;;2618077;47;20464;-74
2023/10/17 14:47:29;;;;;;;;;;;13.90;99.90;;;;;;2617873;47;19972;-76
2023/10/17 14:49:59;;;;;;;;;;;15.40;99.90;;;;;;2616506;47;19939;-74
2023/10/17 14:52:29;;;;;;;;;;;17.90;99.90;;;;;;2618980;47;19947;-75
2023/10/17 14:54:59;;;;;;;;;;;19.90;99.90;;;;;;2620853;47;19943;-74
2023/10/17 14:57:29;;;;;;;;;;;21.30;99.90;;;;;;2621332;47;19954;-73
2023/10/17 14:59:59;;;;;;;;;;;21.70;99.90;;;;;;2622479;39;20315;-74
2023/10/17 15:02:31;;;;;;;;;;;21.40;99.90;;;;;;2618203;54;19945;-73
2023/10/17 15:05:02;;;;;;;;;;;20.70;99.90;;;;;;2616436;54;19946;-73
2023/10/17 15:07:33;;;;;;;;;;;20.00;99.90;;;;;;2616892;47;20434;-73
2023/10/17 15:10:11;;;;;;;;;;;19.50;99.90;;;;;;2617695;47;19953;-73
2023/10/17 15:12:41;;;;;;;;;;;18.90;99.90;;;;;;2617202;54;19953;-73
2023/10/17 15:15:13;;;;;;;;;;;18.30;99.90;;;;;;2616924;54;20484;-75
2023/10/17 15:17:46;;;;;;;;;;;17.70;99.90;;;;;;2617695;47;19939;-74
2023/10/17 15:20:16;;;;;;;;;;;17.10;99.90;;;;;;2617893;47;19995;-75
2023/10/17 15:22:47;;;;;;;;;;;17.90;99.90;;;;;;2617652;47;19998;-75
2023/10/17 15:25:18;;;;;;;;;;;16.30;99.90;;;;;;2615673;39;20401;-73
2023/10/17 15:27:48;;;;;;;;;;;16.00;99.90;;;;;;2617460;31;20414;-75
2023/10/17 15:30:18;;;;;;;;;;;15.60;99.90;;;;;;2617672;47;19939;-75
2023/10/17 15:33:07;;;;;;;;;;;15.40;99.90;;;;;;2617013;47;19971;-73
2023/10/17 15:35:38;;;;;;;;;;;15.30;99.90;;;;;;2617936;39;20380;-75
2023/10/17 15:38:08;;;;;;;;;;;15.10;99.90;;;;;;2617227;46;19946;-75
2023/10/17 15:40:38;;;;;;;;;;;15.00;99.90;;;;;;2616174;47;19962;-77
2023/10/17 15:43:08;;;;;;;;;;;14.90;99.90;;;;;;2618009;54;19947;-75
2023/10/17 15:45:40;;;;;;;;;;;14.70;99.90;;;;;;2618753;47;19947;-76
2023/10/17 15:48:13;;;;;;;;;;;14.50;99.90;;;;;;2618980;47;19947;-75
2023/10/17 15:50:43;;;;;;;;;;;14.30;99.90;;;;;;2619403;47;20551;-76
2023/10/17 15:53:13;;;;;;;;;;;14.20;99.90;;;;;;2618645;47;19946;-77
2023/10/17 15:55:42;;;;;;;;;;;14.00;99.90;;;;;;2620310;47;19954;-77
2023/10/17 15:58:12;;;;;;;;;;;13.80;99.90;;;;;;2618517;47;19945;-75
2023/10/17 16:00:42;;;;;;;;;;;13.70;99.90;;;;;;2619016;39;20348;-76
2023/10/17 16:03:15;;;;;;;;;;;13.60;99.90;;;;;;2617629;39;20281;-74
2023/10/17 16:05:45;;;;;;;;;;;13.50;99.90;;;;;;2617788;47;19939;-67
2023/10/17 16:08:15;;;;;;;;;;;13.40;99.90;;;;;;2619861;54;19954;-76
2023/10/17 16:10:44;;;;;;;;;;;13.30;99.90;;;;;;2615871;54;19946;-78
2023/10/17 16:13:14;;;;;;;;;;;13.20;99.90;;;;;;2616113;54;19970;-76
2023/10/17 16:15:44;;;;;;;;;;;13.10;99.90;;;;;;2616016;47;20450;-78
2023/10/17 16:18:17;;;;;;;;;;;13.10;99.90;;;;;;2616372;54;20430;-75
2023/10/17 16:20:47;;;;;;;;;;;13.00;99.90;;;;;;2617152;47;19947;-75
2023/10/17 16:23:17;;;;;;;;;;;12.90;99.90;;;;;;2616923;54;19946;-74
2023/10/17 16:25:49;;;;;;;;;;;12.80;99.90;;;;;;2617463;39;20364;-74
2023/10/17 16:28:19;;;;;;;;;;;12.70;99.90;;;;;;2617706;54;19954;-77
2023/10/17 16:30:49;;;;;;;;;;;12.70;99.90;;;;;;2617609;47;19950;-74
2023/10/17 16:33:22;;;;;;;;;;;12.60;99.90;;;;;;2618335;39;20157;-73
2023/10/17 16:35:59;;;;;;;;;;;12.50;99.90;;;;;;2618215;39;20342;-73
2023/10/17 16:38:28;;;;;;;;;;;12.40;99.90;;;;;;2617947;46;19947;-72
2023/10/17 16:40:58;;;;;;;;;;;12.30;99.90;;;;;;2617300;47;19953;-73
2023/10/17 16:43:31;;;;;;;;;;;12.20;99.90;;;;;;2617948;47;19957;-74
2023/10/17 16:46:02;;;;;;;;;;;12.10;99.90;;;;;;2617521;47;19950;-74
2023/10/17 16:48:34;;;;;;;;;;;12.10;99.90;;;;;;2619854;31;20467;-76
2023/10/17 16:51:04;;;;;;;;;;;12.00;99.90;;;;;;2617205;47;19988;-73
2023/10/17 16:53:35;;;;;;;;;;;12.00;99.90;;;;;;2616975;47;19966;-72
2023/10/17 16:56:05;;;;;;;;;;;11.90;99.90;;;;;;2617303;47;19946;-73
2023/10/17 16:58:38;;;;;;;;;;;11.90;99.90;;;;;;2617678;47;20442;-73
2023/10/17 17:01:09;;;;;;;;;;;11.70;99.90;;;;;;2619127;39;20375;-76
2023/10/17 17:03:47;;;;;;;;;;;11.60;99.90;;;;;;2617167;47;19995;-74
2023/10/17 17:06:17;;;;;;;;;;;11.60;99.90;;;;;;2617996;48;19939;-71
2023/10/17 17:08:47;;;;;;;;;;;11.50;99.90;;;;;;2617850;47;19939;-72
2023/10/17 17:11:16;;;;;;;;;;;11.40;99.90;;;;;;2619991;46;19972;-76
2023/10/17 17:13:46;;;;;;;;;;;11.30;99.90;;;;;;2619681;47;19954;-76
2023/10/17 17:16:16;;;;;;;;;;;11.30;99.90;;;;;;2620207;47;19953;-76
2023/10/17 17:18:48;;;;;;;;;;;11.20;99.90;;;;;;2618764;54;19947;-71
2023/10/17 17:21:18;;;;;;;;;;;11.10;99.90;;;;;;2617769;47;20457;-72
2023/10/17 17:23:48;;;;;;;;;;;11.10;99.90;;;;;;2617375;39;20039;-72
2023/10/17 17:26:19;;;;;;;;;;;11.00;99.90;;;;;;2617537;50;19947;-71
2023/10/17 17:28:49;;;;;;;;;;;10.90;99.90;;;;;;2617338;47;19954;-71
2023/10/17 17:31:19;;;;;;;;;;;10.90;99.90;;;;;;2617674;47;19939;-71
2023/10/17 17:33:51;;;;;;;;;;;10.80;99.90;;;;;;2615889;47;20474;-73
2023/10/17 17:36:21;;;;;;;;;;;10.80;99.90;;;;;;2616694;46;20452;-72
2023/10/17 17:38:52;;;;;;;;;;;10.80;99.90;;;;;;2616369;47;19957;-73
2023/10/17 17:41:21;;;;;;;;;;;10.70;99.90;;;;;;2617102;47;20707;-73
2023/10/17 17:43:51;;;;;;;;;;;10.70;99.90;;;;;;2617374;39;20381;-73
2023/10/17 17:46:24;;;;;;;;;;;10.60;99.90;;;;;;2617852;47;19946;-73
2023/10/17 17:48:57;;;;;;;;;;;10.60;99.90;;;;;;2616388;48;19959;-72
2023/10/17 17:51:27;;;;;;;;;;;10.50;99.90;;;;;;2611566;54;19946;-71
2023/10/17 17:53:57;;;;;;;;;;;10.40;99.90;;;;;;2604344;54;19951;-71
2023/10/17 17:56:26;;;;;;;;;;;10.40;99.90;;;;;;2606280;54;19951;-71
2023/10/17 17:58:58;;;;;;;;;;;10.30;99.90;;;;;;2606518;47;19953;-72
2023/10/17 18:01:28;;;;;;;;;;;10.30;99.90;;;;;;2606386;54;19947;-73
2023/10/17 18:04:01;;;;;;;;;;;10.20;99.90;;;;;;2605737;39;20365;-71
2023/10/17 18:06:51;;;;;;;;;;;10.20;99.90;;;;;;2606340;31;20440;-72
2023/10/17 18:09:21;;;;;;;;;;;10.10;99.90;;;;;;2606774;47;19945;-74
2023/10/17 18:11:51;;;;;;;;;;;10.10;99.90;;;;;;2606412;47;19957;-73
2023/10/17 18:14:21;;;;;;;;;;;11.50;99.90;;;;;;2611826;54;19946;-73
2023/10/17 18:16:51;;;;;;;;;;;10.00;99.90;;;;;;2615944;54;20034;-77
2023/10/17 18:19:24;;;;;;;;;;;10.00;99.90;;;;;;2617613;47;19973;-76
2023/10/17 18:21:54;;;;;;;;;;;9.90;99.90;;;;;;2617102;54;19945;-71
2023/10/17 18:24:23;;;;;;;;;;;9.90;99.90;;;;;;2615792;46;20442;-75
2023/10/17 18:26:54;;;;;;;;;;;9.90;99.90;;;;;;2617194;39;20013;-73
2023/10/17 18:29:24;;;;;;;;;;;9.80;99.90;;;;;;2616369;54;19946;-73
2023/10/17 18:31:54;;;;;;;;;;;9.80;99.90;;;;;;2616302;46;19947;-73
2023/10/17 18:34:26;;;;;;;;;;;9.70;99.90;;;;;;2615351;47;19958;-74
2023/10/17 18:36:55;;;;;;;;;;;9.70;99.90;;;;;;2616136;54;20460;-80
2023/10/17 18:39:25;;;;;;;;;;;9.60;99.90;;;;;;2616624;51;19975;-73
2023/10/17 18:41:55;;;;;;;;;;;9.60;99.90;;;;;;2616983;47;19939;-73
2023/10/17 18:44:25;;;;;;;;;;;9.60;99.90;;;;;;2616597;31;20423;-72
2023/10/17 18:46:55;;;;;;;;;;;9.60;99.90;;;;;;2615493;54;20033;-73
2023/10/17 18:49:27;;;;;;;;;;;9.50;99.90;;;;;;2614141;47;19954;-75
2023/10/17 18:51:57;;;;;;;;;;;9.50;99.90;;;;;;2616728;49;20822;-74
2023/10/17 18:54:29;;;;;;;;;;;9.50;99.90;;;;;;2616632;54;19951;-75
2023/10/17 18:56:58;;;;;;;;;;;9.40;99.90;;;;;;2616351;54;20056;-73
2023/10/17 18:59:28;;;;;;;;;;;9.40;99.90;;;;;;2616815;47;19939;-74
2023/10/17 19:01:58;;;;;;;;;;;9.40;99.90;;;;;;2616224;54;19954;-76
2023/10/17 19:04:31;;;;;;;;;;;9.40;99.90;;;;;;2614452;54;19977;-74
2023/10/17 19:07:02;;;;;;;;;;;9.30;99.90;;;;;;2616392;47;20401;-73
2023/10/17 19:09:32;;;;;;;;;;;9.30;99.90;;;;;;2616684;47;19946;-75
2023/10/17 19:12:01;;;;;;;;;;;9.30;99.90;;;;;;2616267;39;20392;-73
2023/10/17 19:14:31;;;;;;;;;;;9.20;99.90;;;;;;2613439;39;20385;-78
2023/10/17 19:17:01;;;;;;;;;;;9.20;99.90;;;;;;2623716;39;20443;-80
2023/10/17 19:19:33;;;;;;;;;;;9.20;99.90;;;;;;2626112;54;19947;-80
2023/10/17 19:22:06;;;;;;;;;;;9.20;99.90;;;;;;2622499;54;19947;-79
2023/10/17 19:24:40;;;;;;;;;;;9.30;99.90;;;;;;2620663;47;19950;-79
2023/10/17 19:27:10;;;;;;;;;;;9.30;99.90;;;;;;2620144;46;19947;-79
2023/10/17 19:29:40;;;;;;;;;;;9.30;99.90;;;;;;2621701;39;20392;-79
2023/10/17 19:32:10;;;;;;;;;;;9.20;99.90;;;;;;2620703;47;19951;-75
2023/10/17 19:34:46;;;;;;;;;;;9.20;99.90;;;;;;2616554;47;19946;-75
2023/10/17 19:37:17;;;;;;;;;;;9.20;99.90;;;;;;2626777;47;19942;-84
2023/10/17 19:39:48;;;;;;;;;;;9.20;99.90;;;;;;2629151;54;19931;-84
2023/10/17 19:42:18;;;;;;;;;;;9.20;99.90;;;;;;2626552;54;19951;-82
2023/10/17 19:44:48;;;;;;;;;;;9.30;99.90;;;;;;2619315;47;20464;-73
2023/10/17 19:47:18;;;;;;;;;;;9.20;99.90;;;;;;2621985;47;19946;-82
2023/10/17 19:49:50;;;;;;;;;;;9.20;99.90;;;;;;2625007;47;20058;-78
2023/10/17 19:52:20;;;;;;;;;;;9.30;99.90;;;;;;2625413;47;20479;-81
2023/10/17 19:54:50;;;;;;;;;;;9.30;99.90;;;;;;2627295;47;19951;-82
2023/10/17 19:57:20;;;;;;;;;;;9.20;99.90;;;;;;2624597;47;19939;-80
2023/10/17 19:59:49;;;;;;;;;;;9.20;99.90;;;;;;2625586;47;19957;-82
2023/10/17 20:02:20;;;;;;;;;;;9.20;99.90;;;;;;2623414;47;20006;-82
2023/10/17 20:04:52;;;;;;;;;;;9.10;99.90;;;;;;2623175;54;19946;-79
2023/10/17 20:07:22;;;;;;;;;;;9.10;99.90;;;;;;2623117;47;19946;-78
2023/10/17 20:09:52;;;;;;;;;;;9.00;99.90;;;;;;2622029;54;20041;-79
2023/10/17 20:12:22;;;;;;;;;;;9.00;99.90;;;;;;2623108;54;19946;-80
2023/10/17 20:14:52;;;;;;;;;;;9.00;99.90;;;;;;2619960;54;19950;-72
2023/10/17 20:17:21;;;;;;;;;;;9.10;99.90;;;;;;2616222;54;19939;-72
2023/10/17 20:19:55;;;;;;;;;;;9.00;99.90;;;;;;2615416;47;19947;-72
2023/10/17 20:22:24;;;;;;;;;;;9.00;99.90;;;;;;2616945;50;19946;-72
2023/10/17 20:24:58;;;;;;;;;;;9.10;99.90;;;;;;2617470;47;19945;-72
2023/10/17 20:27:27;;;;;;;;;;;9.00;99.90;;;;;;2616842;54;19947;-72
2023/10/17 20:29:58;;;;;;;;;;;9.00;99.90;;;;;;2616945;47;20046;-72
2023/10/17 20:32:28;;;;;;;;;;;9.00;99.90;;;;;;2619645;54;20037;-72
2023/10/17 20:35:00;;;;;;;;;;;9.00;99.90;;;;;;2622397;47;20476;-72
2023/10/17 20:37:30;;;;;;;;;;;9.20;99.90;;;;;;2623782;54;19946;-72
2023/10/17 20:40:00;;;;;;;;;;;9.10;99.90;;;;;;2620835;54;19957;-72
2023/10/17 20:42:29;;;;;;;;;;;9.10;99.90;;;;;;2617956;47;20022;-72
2023/10/17 20:44:59;;;;;;;;;;;9.10;99.90;;;;;;2617532;47;19945;-73
2023/10/17 20:47:29;;;;;;;;;;;9.10;99.90;;;;;;2617309;54;19946;-74
2023/10/17 20:50:01;;;;;;;;;;;9.10;99.90;;;;;;2617978;39;20392;-72
2023/10/17 20:52:31;;;;;;;;;;;9.10;99.90;;;;;;2618102;54;19953;-74
2023/10/17 20:55:01;;;;;;;;;;;9.20;99.90;;;;;;2616842;54;19952;-72
2023/10/17 20:57:31;;;;;;;;;;;9.10;99.90;;;;;;2617155;47;19954;-73
2023/10/17 21:00:00;;;;;;;;;;;9.10;99.90;;;;;;2617257;47;20446;-72
2023/10/17 21:02:32;;;;;;;;;;;9.10;99.90;;;;;;2617172;54;19939;-72
2023/10/17 21:05:06;;;;;;;;;;;9.10;99.90;;;;;;2616472;54;19946;-74
2023/10/17 21:07:36;;;;;;;;;;;9.10;99.90;;;;;;2622050;54;20449;-74
2023/10/17 21:10:07;;;;;;;;;;;9.20;99.90;;;;;;2619719;54;19954;-73
2023/10/17 21:12:37;;;;;;;;;;;9.20;99.90;;;;;;2623148;54;19945;-72
2023/10/17 21:15:11;;;;;;;;;;;9.20;99.90;;;;;;2621383;54;20506;-73
2023/10/17 21:17:40;;;;;;;;;;;9.20;99.90;;;;;;2617891;54;19950;-73
2023/10/17 21:20:14;;;;;;;;;;;9.20;99.90;;;;;;2617573;47;19954;-73
2023/10/17 21:22:43;;;;;;;;;;;9.20;99.90;;;;;;2618265;47;19939;-73
2023/10/17 21:25:13;;;;;;;;;;;9.20;99.90;;;;;;2618102;54;19946;-74
2023/10/17 21:27:43;;;;;;;;;;;9.20;99.90;;;;;;2618133;54;19950;-73
2023/10/17 21:30:13;;;;;;;;;;;9.20;99.90;;;;;;2618442;54;19945;-73
2023/10/17 21:32:43;;;;;;;;;;;9.20;99.90;;;;;;2618034;47;19950;-73
2023/10/17 21:35:16;;;;;;;;;;;9.20;99.90;;;;;;2617053;54;19963;-73
2023/10/17 21:37:46;;;;;;;;;;;9.30;99.90;;;;;;2618511;47;19946;-72
2023/10/17 21:40:19;;;;;;;;;;;9.20;99.90;;;;;;2618888;39;20323;-74
2023/10/17 21:42:48;;;;;;;;;;;9.20;99.90;;;;;;2618518;47;19953;-72
2023/10/17 21:45:18;;;;;;;;;;;9.30;99.90;;;;;;2617058;54;19995;-72
2023/10/17 21:47:48;;;;;;;;;;;9.30;99.90;;;;;;2617552;54;19945;-72
2023/10/17 21:50:21;;;;;;;;;;;9.10;99.90;;;;;;2617401;47;19939;-72
2023/10/17 21:52:51;;;;;;;;;;;9.30;99.90;;;;;;2617875;54;19947;-72
2023/10/17 21:55:21;;;;;;;;;;;9.30;99.90;;;;;;2617311;39;20706;-73
2023/10/17 21:57:51;;;;;;;;;;;9.40;99.90;;;;;;2617184;47;19947;-73
2023/10/17 22:00:37;;;;;;;;;;;9.40;99.90;;;;;;2617540;46;19951;-73
2023/10/17 22:03:07;;;;;;;;;;;9.40;99.90;;;;;;2616477;54;19951;-72
2023/10/17 22:05:41;;;;;;;;;;;9.40;99.90;;;;;;2616604;47;19954;-72
2023/10/17 22:08:14;;;;;;;;;;;9.40;99.90;;;;;;2618513;47;20438;-72
2023/10/17 22:10:44;;;;;;;;;;;9.40;99.90;;;;;;2617161;46;19990;-72
2023/10/17 22:13:14;;;;;;;;;;;9.40;99.90;;;;;;2617463;54;19947;-73
2023/10/17 22:15:44;;;;;;;;;;;9.40;99.90;;;;;;2618705;47;19955;-73
2023/10/17 22:18:14;;;;;;;;;;;9.40;99.90;;;;;;2618798;54;19950;-73
2023/10/17 22:20:46;;;;;;;;;;;9.40;99.90;;;;;;2618978;54;20505;-73
2023/10/17 22:23:16;;;;;;;;;;;9.40;99.90;;;;;;2617855;54;19954;-73
2023/10/17 22:25:46;;;;;;;;;;;9.40;99.90;;;;;;2617761;54;19947;-73
2023/10/17 22:28:16;;;;;;;;;;;9.30;99.90;;;;;;2618112;47;19953;-73
2023/10/17 22:30:46;;;;;;;;;;;9.40;99.90;;;;;;2619391;47;19953;-73
2023/10/17 22:33:15;;;;;;;;;;;9.40;99.90;;;;;;2619161;46;19980;-71
2023/10/17 22:35:48;;;;;;;;;;;9.30;99.90;;;;;;2618928;54;19946;-73
2023/10/17 22:38:17;;;;;;;;;;;10.10;99.90;;;;;;2618313;54;19939;-73
2023/10/17 22:40:47;;;;;;;;;;;9.30;99.90;;;;;;2617214;47;19946;-74
2023/10/17 22:43:17;;;;;;;;;;;9.30;99.90;;;;;;2618561;47;19939;-72
2023/10/17 22:45:47;;;;;;;;;;;9.30;99.90;;;;;;2619283;47;19946;-73
2023/10/17 22:48:17;;;;;;;;;;;9.30;99.90;;;;;;2619187;47;20061;-72
2023/10/17 22:50:49;;;;;;;;;;;9.10;99.90;;;;;;2620306;47;19970;-73
2023/10/17 22:53:19;;;;;;;;;;;9.30;99.90;;;;;;2619425;54;19952;-72
2023/10/17 22:55:49;;;;;;;;;;;9.30;99.90;;;;;;2618720;54;19945;-71
2023/10/17 22:58:18;;;;;;;;;;;9.20;99.90;;;;;;2618436;54;19939;-72
2023/10/17 23:00:48;;;;;;;;;;;9.20;99.90;;;;;;2619744;54;19946;-72
2023/10/17 23:03:18;;;;;;;;;;;9.20;99.90;;;;;;2619471;47;19946;-72
2023/10/17 23:05:50;;;;;;;;;;;9.20;99.90;;;;;;2622035;47;19950;-72
2023/10/17 23:08:20;;;;;;;;;;;9.20;99.90;;;;;;2618657;54;19953;-72
2023/10/17 23:10:50;;;;;;;;;;;9.20;99.90;;;;;;2618043;54;19938;-74
2023/10/17 23:13:21;;;;;;;;;;;9.20;99.90;;;;;;2617935;53;20002;-72
